RYR618X LEMG-EGFF
Flight info
| Callsign | RYR618X |
|---|---|
| Flight time | 2h 12m |
| Altitude | 36000 |
| Route | BLN N865 DELOG DCT NOZHU DCT SHIRI DCT TOJAQ |
| Aircraft | B738/M-SDE2E3FGHIRWXY/LB1 |
Departure
| Time | 2026-05-07 11:55 |
|---|---|
| Airport | Málaga-Costa del Sol Airport (LEMG) |
Arrival
| Time | 2026-05-07 14:08 |
|---|---|
| Airport | Cardiff International Airport (EGFF) |
| Time | Latitude | Longitude | Altitude | Speed | Heading |
|---|---|---|---|---|---|
| 2026-05-07 11:34 | 36.67345 | -4.49114 | 34 ft | 0 kts | 105° |
| 2026-05-07 11:46 | 36.67351 | -4.49138 | 11 ft | 4 kts | 109° |
| 2026-05-07 11:47 | 36.67361 | -4.49169 | 32 ft | 4 kts | 121° |
| 2026-05-07 11:47 | 36.67377 | -4.49191 | 32 ft | 4 kts | 166° |
| 2026-05-07 11:47 | 36.67388 | -4.49190 | 32 ft | 0 kts | 221° |
| 2026-05-07 11:49 | 36.67383 | -4.49196 | 31 ft | 6 kts | 221° |
| 2026-05-07 11:49 | 36.67342 | -4.49234 | 34 ft | 8 kts | 207° |
| 2026-05-07 11:49 | 36.67281 | -4.49268 | 34 ft | 12 kts | 229° |
| 2026-05-07 11:50 | 36.67308 | -4.49360 | 34 ft | 15 kts | 311° |
| 2026-05-07 11:50 | 36.67389 | -4.49474 | 34 ft | 18 kts | 311° |
| 2026-05-07 11:50 | 36.67463 | -4.49577 | 34 ft | 17 kts | 311° |
| 2026-05-07 11:50 | 36.67540 | -4.49685 | 34 ft | 16 kts | 311° |
| 2026-05-07 11:51 | 36.67625 | -4.49803 | 34 ft | 20 kts | 311° |
| 2026-05-07 11:51 | 36.67715 | -4.49930 | 34 ft | 19 kts | 311° |
| 2026-05-07 11:51 | 36.67801 | -4.50052 | 34 ft | 18 kts | 312° |
| 2026-05-07 11:51 | 36.67885 | -4.50168 | 34 ft | 18 kts | 312° |
| 2026-05-07 11:52 | 36.67967 | -4.50282 | 34 ft | 17 kts | 312° |
| 2026-05-07 11:52 | 36.68045 | -4.50392 | 34 ft | 17 kts | 311° |
| 2026-05-07 11:52 | 36.68120 | -4.50498 | 34 ft | 16 kts | 311° |
| 2026-05-07 11:52 | 36.68191 | -4.50598 | 34 ft | 15 kts | 311° |
| 2026-05-07 11:53 | 36.68261 | -4.50695 | 34 ft | 15 kts | 311° |
| 2026-05-07 11:53 | 36.68327 | -4.50788 | 34 ft | 14 kts | 311° |
| 2026-05-07 11:53 | 36.68391 | -4.50877 | 34 ft | 13 kts | 311° |
| 2026-05-07 11:53 | 36.68452 | -4.50962 | 35 ft | 13 kts | 311° |
| 2026-05-07 11:54 | 36.68501 | -4.51052 | 35 ft | 13 kts | 280° |
| 2026-05-07 11:54 | 36.68458 | -4.51120 | 35 ft | 6 kts | 194° |
| 2026-05-07 11:54 | 36.68417 | -4.51133 | 36 ft | 7 kts | 194° |
| 2026-05-07 11:54 | 36.68366 | -4.51133 | 36 ft | 8 kts | 148° |
| 2026-05-07 11:55 | 36.68317 | -4.51069 | 35 ft | 25 kts | 132° |
| 2026-05-07 11:55 | 36.68005 | -4.50632 | 34 ft | 108 kts | 131° |
| 2026-05-07 11:55 | 36.67358 | -4.49737 | 151 ft | 164 kts | 133° |
| 2026-05-07 11:55 | 36.66527 | -4.48679 | 1083 ft | 169 kts | 133° |
| 2026-05-07 11:56 | 36.65809 | -4.47661 | 2166 ft | 165 kts | 130° |
| 2026-05-07 11:56 | 36.65051 | -4.46483 | 2785 ft | 183 kts | 130° |
| 2026-05-07 11:56 | 36.64238 | -4.45174 | 3337 ft | 198 kts | 128° |
| 2026-05-07 11:56 | 36.63366 | -4.43791 | 3870 ft | 212 kts | 134° |
| 2026-05-07 11:57 | 36.62313 | -4.42407 | 4168 ft | 232 kts | 131° |
| 2026-05-07 11:57 | 36.61688 | -4.40500 | 4544 ft | 251 kts | 92° |
| 2026-05-07 11:57 | 36.62131 | -4.38335 | 4896 ft | 272 kts | 57° |
| 2026-05-07 11:57 | 36.63375 | -4.36523 | 5643 ft | 277 kts | 45° |
| 2026-05-07 11:58 | 36.64844 | -4.34955 | 6489 ft | 281 kts | 33° |
| 2026-05-07 11:58 | 36.66549 | -4.33718 | 7280 ft | 285 kts | 27° |
| 2026-05-07 11:58 | 36.68321 | -4.32580 | 8082 ft | 288 kts | 26° |
| 2026-05-07 11:58 | 36.70119 | -4.31446 | 8891 ft | 292 kts | 26° |
| 2026-05-07 11:59 | 36.71938 | -4.30287 | 9695 ft | 296 kts | 26° |
| 2026-05-07 11:59 | 36.73784 | -4.29093 | 10354 ft | 305 kts | 26° |
| 2026-05-07 11:59 | 36.75734 | -4.27818 | 10546 ft | 329 kts | 27° |
| 2026-05-07 11:59 | 36.77825 | -4.26437 | 10876 ft | 347 kts | 27° |
| 2026-05-07 12:00 | 36.79979 | -4.25003 | 11511 ft | 354 kts | 27° |
| 2026-05-07 12:00 | 36.82162 | -4.23541 | 12252 ft | 358 kts | 27° |
| 2026-05-07 12:00 | 36.84367 | -4.22060 | 12992 ft | 362 kts | 27° |
| 2026-05-07 12:00 | 36.86571 | -4.20577 | 13690 ft | 366 kts | 27° |
| 2026-05-07 12:01 | 36.88826 | -4.19058 | 14328 ft | 371 kts | 27° |
| 2026-05-07 12:01 | 36.91112 | -4.17517 | 14985 ft | 374 kts | 27° |
| 2026-05-07 12:01 | 36.93412 | -4.15966 | 15645 ft | 378 kts | 27° |
| 2026-05-07 12:01 | 36.95736 | -4.14397 | 16343 ft | 382 kts | 26° |
| 2026-05-07 12:02 | 36.98095 | -4.12804 | 16977 ft | 386 kts | 26° |
| 2026-05-07 12:02 | 37.00477 | -4.11194 | 17599 ft | 391 kts | 26° |
| 2026-05-07 12:02 | 37.02882 | -4.09566 | 18206 ft | 395 kts | 26° |
| 2026-05-07 12:02 | 37.05315 | -4.07919 | 18780 ft | 398 kts | 26° |
| 2026-05-07 12:03 | 37.07755 | -4.06265 | 19370 ft | 400 kts | 25° |
| 2026-05-07 12:03 | 37.10182 | -4.04619 | 19881 ft | 404 kts | 25° |
| 2026-05-07 12:03 | 37.12662 | -4.02937 | 20425 ft | 407 kts | 25° |
| 2026-05-07 12:03 | 37.15163 | -4.01239 | 20996 ft | 410 kts | 24° |
| 2026-05-07 12:04 | 37.17686 | -3.99544 | 21543 ft | 411 kts | 22° |
| 2026-05-07 12:04 | 37.20337 | -3.98207 | 22041 ft | 410 kts | 13° |
| 2026-05-07 12:04 | 37.23074 | -3.97171 | 22577 ft | 412 kts | 11° |
| 2026-05-07 12:04 | 37.25836 | -3.96176 | 23104 ft | 414 kts | 11° |
| 2026-05-07 12:05 | 37.28622 | -3.95181 | 23602 ft | 417 kts | 11° |
| 2026-05-07 12:05 | 37.31426 | -3.94170 | 24032 ft | 420 kts | 11° |
| 2026-05-07 12:05 | 37.34239 | -3.93142 | 24462 ft | 423 kts | 11° |
| 2026-05-07 12:05 | 37.37071 | -3.92096 | 24889 ft | 424 kts | 11° |
| 2026-05-07 12:06 | 37.39910 | -3.91039 | 25296 ft | 427 kts | 11° |
| 2026-05-07 12:06 | 37.42770 | -3.89970 | 25693 ft | 430 kts | 11° |
| 2026-05-07 12:06 | 37.45641 | -3.88894 | 26070 ft | 432 kts | 11° |
| 2026-05-07 12:06 | 37.48528 | -3.87810 | 26451 ft | 434 kts | 11° |
| 2026-05-07 12:07 | 37.51432 | -3.86719 | 26838 ft | 436 kts | 11° |
| 2026-05-07 12:07 | 37.54349 | -3.85622 | 27207 ft | 439 kts | 11° |
| 2026-05-07 12:07 | 37.57242 | -3.84533 | 27596 ft | 440 kts | 11° |
| 2026-05-07 12:07 | 37.60185 | -3.83425 | 27966 ft | 442 kts | 10° |
| 2026-05-07 12:08 | 37.63133 | -3.82315 | 28352 ft | 443 kts | 10° |
| 2026-05-07 12:08 | 37.66106 | -3.81194 | 28681 ft | 446 kts | 10° |
| 2026-05-07 12:08 | 37.69088 | -3.80068 | 29014 ft | 449 kts | 10° |
| 2026-05-07 12:08 | 37.72091 | -3.78934 | 29385 ft | 451 kts | 10° |
| 2026-05-07 12:09 | 37.75105 | -3.77795 | 29707 ft | 453 kts | 10° |
| 2026-05-07 12:09 | 37.78133 | -3.76649 | 30025 ft | 454 kts | 10° |
| 2026-05-07 12:09 | 37.81160 | -3.75501 | 30353 ft | 455 kts | 10° |
| 2026-05-07 12:09 | 37.84193 | -3.74351 | 30695 ft | 454 kts | 10° |
| 2026-05-07 12:10 | 37.87224 | -3.73200 | 31012 ft | 455 kts | 10° |
| 2026-05-07 12:10 | 37.90257 | -3.72048 | 31298 ft | 455 kts | 10° |
| 2026-05-07 12:10 | 37.93298 | -3.70893 | 31593 ft | 456 kts | 10° |
| 2026-05-07 12:10 | 37.96334 | -3.69738 | 31900 ft | 456 kts | 10° |
| 2026-05-07 12:11 | 37.99378 | -3.68579 | 32192 ft | 456 kts | 10° |
| 2026-05-07 12:11 | 38.02417 | -3.67421 | 32504 ft | 456 kts | 10° |
| 2026-05-07 12:11 | 38.05458 | -3.66261 | 32815 ft | 456 kts | 10° |
| 2026-05-07 12:11 | 38.08504 | -3.65099 | 33100 ft | 457 kts | 10° |
| 2026-05-07 12:12 | 38.11545 | -3.63938 | 33401 ft | 457 kts | 10° |
| 2026-05-07 12:12 | 38.14551 | -3.62819 | 33706 ft | 454 kts | 7° |
| 2026-05-07 12:12 | 38.17637 | -3.62123 | 33953 ft | 447 kts | 359° |
| 2026-05-07 12:12 | 38.20732 | -3.61801 | 34178 ft | 446 kts | 358° |
| 2026-05-07 12:13 | 38.23827 | -3.61540 | 34368 ft | 447 kts | 357° |
| 2026-05-07 12:13 | 38.26931 | -3.61290 | 34588 ft | 447 kts | 358° |
| 2026-05-07 12:13 | 38.30036 | -3.61030 | 34805 ft | 448 kts | 358° |
| 2026-05-07 12:13 | 38.33155 | -3.60754 | 35004 ft | 449 kts | 358° |
| 2026-05-07 12:14 | 38.36272 | -3.60464 | 35216 ft | 449 kts | 358° |
| 2026-05-07 12:14 | 38.39394 | -3.60164 | 35444 ft | 449 kts | 359° |
| 2026-05-07 12:14 | 38.42511 | -3.59861 | 35636 ft | 450 kts | 359° |
| 2026-05-07 12:14 | 38.45639 | -3.59555 | 35820 ft | 451 kts | 359° |
| 2026-05-07 12:15 | 38.48767 | -3.59248 | 35918 ft | 451 kts | 359° |
| 2026-05-07 12:15 | 38.55037 | -3.58632 | 35928 ft | 452 kts | 359° |
| 2026-05-07 12:16 | 38.61302 | -3.58017 | 35922 ft | 452 kts | 359° |
| 2026-05-07 12:16 | 38.67577 | -3.57401 | 35928 ft | 452 kts | 359° |
| 2026-05-07 12:17 | 38.73848 | -3.56784 | 35922 ft | 452 kts | 360° |
| 2026-05-07 12:17 | 38.80078 | -3.56170 | 35920 ft | 452 kts | 360° |
| 2026-05-07 12:18 | 38.86359 | -3.55551 | 35922 ft | 453 kts | 360° |
| 2026-05-07 12:18 | 38.92652 | -3.54929 | 35922 ft | 453 kts | 0° |
| 2026-05-07 12:19 | 38.98947 | -3.54305 | 35914 ft | 454 kts | 0° |
| 2026-05-07 12:19 | 39.05259 | -3.53681 | 35917 ft | 455 kts | 0° |
| 2026-05-07 12:20 | 39.11575 | -3.53059 | 35925 ft | 455 kts | 0° |
| 2026-05-07 12:20 | 39.17861 | -3.52437 | 35915 ft | 456 kts | 0° |
| 2026-05-07 12:21 | 39.24197 | -3.51810 | 35919 ft | 457 kts | 1° |
| 2026-05-07 12:21 | 39.30545 | -3.51180 | 35920 ft | 457 kts | 1° |
| 2026-05-07 12:22 | 39.36893 | -3.50548 | 35919 ft | 458 kts | 1° |
| 2026-05-07 12:22 | 39.43254 | -3.49914 | 35919 ft | 459 kts | 1° |
| 2026-05-07 12:23 | 39.49619 | -3.49279 | 35915 ft | 459 kts | 1° |
| 2026-05-07 12:23 | 39.55998 | -3.48641 | 35917 ft | 460 kts | 1° |
| 2026-05-07 12:24 | 39.62379 | -3.47998 | 35908 ft | 460 kts | 1° |
| 2026-05-07 12:24 | 39.68760 | -3.47350 | 35908 ft | 460 kts | 1° |
| 2026-05-07 12:25 | 39.75109 | -3.46705 | 35910 ft | 460 kts | 1° |
| 2026-05-07 12:25 | 39.81481 | -3.46585 | 35919 ft | 456 kts | 353° |
| 2026-05-07 12:26 | 39.87811 | -3.47261 | 35905 ft | 456 kts | 352° |
| 2026-05-07 12:26 | 39.94136 | -3.47984 | 35907 ft | 456 kts | 352° |
| 2026-05-07 12:27 | 39.99408 | -3.48550 | 35902 ft | 456 kts | 353° |
| 2026-05-07 12:27 | 40.05743 | -3.49201 | 35904 ft | 456 kts | 353° |
| 2026-05-07 12:28 | 40.12080 | -3.49843 | 35908 ft | 456 kts | 353° |
| 2026-05-07 12:28 | 40.18408 | -3.50486 | 35908 ft | 457 kts | 353° |
| 2026-05-07 12:29 | 40.24759 | -3.51134 | 35908 ft | 457 kts | 353° |
| 2026-05-07 12:29 | 40.31062 | -3.51778 | 35915 ft | 457 kts | 353° |
| 2026-05-07 12:30 | 40.37411 | -3.52428 | 35914 ft | 458 kts | 353° |
| 2026-05-07 12:30 | 40.43772 | -3.53082 | 35915 ft | 459 kts | 353° |
| 2026-05-07 12:31 | 40.50144 | -3.53737 | 35916 ft | 459 kts | 353° |
| 2026-05-07 12:31 | 40.56523 | -3.54394 | 35912 ft | 460 kts | 353° |
| 2026-05-07 12:32 | 40.62901 | -3.55052 | 35934 ft | 460 kts | 353° |
| 2026-05-07 12:32 | 40.69272 | -3.55711 | 35932 ft | 460 kts | 353° |
| 2026-05-07 12:33 | 40.78837 | -3.56703 | 35937 ft | 459 kts | 353° |
| 2026-05-07 12:33 | 40.85212 | -3.57366 | 35941 ft | 459 kts | 353° |
| 2026-05-07 12:34 | 40.91577 | -3.58028 | 35931 ft | 459 kts | 353° |
| 2026-05-07 12:34 | 40.97941 | -3.58692 | 35931 ft | 458 kts | 353° |
| 2026-05-07 12:35 | 41.04298 | -3.59357 | 35934 ft | 458 kts | 353° |
| 2026-05-07 12:35 | 41.10659 | -3.60023 | 35931 ft | 458 kts | 353° |
| 2026-05-07 12:36 | 41.17027 | -3.60629 | 35917 ft | 459 kts | 355° |
| 2026-05-07 12:36 | 41.23372 | -3.60802 | 35925 ft | 459 kts | 357° |
| 2026-05-07 12:37 | 41.29768 | -3.60890 | 35923 ft | 460 kts | 357° |
| 2026-05-07 12:37 | 41.36167 | -3.61030 | 35912 ft | 460 kts | 357° |
| 2026-05-07 12:38 | 41.42570 | -3.61197 | 35908 ft | 460 kts | 357° |
| 2026-05-07 12:38 | 41.48978 | -3.61364 | 35907 ft | 461 kts | 357° |
| 2026-05-07 12:39 | 41.55395 | -3.61450 | 35905 ft | 461 kts | 358° |
| 2026-05-07 12:39 | 41.61810 | -3.61425 | 35906 ft | 461 kts | 358° |
| 2026-05-07 12:40 | 41.68233 | -3.61403 | 35902 ft | 461 kts | 358° |
| 2026-05-07 12:40 | 41.74656 | -3.61398 | 35901 ft | 462 kts | 358° |
| 2026-05-07 12:41 | 41.81083 | -3.61399 | 35902 ft | 462 kts | 358° |
| 2026-05-07 12:41 | 41.87516 | -3.61400 | 35902 ft | 462 kts | 358° |
| 2026-05-07 12:42 | 41.93901 | -3.61400 | 35900 ft | 462 kts | 358° |
| 2026-05-07 12:42 | 42.00337 | -3.61400 | 35906 ft | 462 kts | 358° |
| 2026-05-07 12:43 | 42.06773 | -3.61557 | 35909 ft | 462 kts | 355° |
| 2026-05-07 12:43 | 42.13196 | -3.62029 | 35910 ft | 462 kts | 355° |
| 2026-05-07 12:44 | 42.19621 | -3.62485 | 35911 ft | 462 kts | 355° |
| 2026-05-07 12:44 | 42.26058 | -3.62893 | 35915 ft | 463 kts | 355° |
| 2026-05-07 12:45 | 42.32505 | -3.63293 | 35910 ft | 463 kts | 355° |
| 2026-05-07 12:45 | 42.38881 | -3.63968 | 35916 ft | 462 kts | 350° |
| 2026-05-07 12:46 | 42.45231 | -3.65288 | 35910 ft | 462 kts | 348° |
| 2026-05-07 12:46 | 42.51578 | -3.66646 | 35926 ft | 462 kts | 349° |
| 2026-05-07 12:47 | 42.57945 | -3.67941 | 35908 ft | 463 kts | 349° |
| 2026-05-07 12:47 | 42.64323 | -3.69218 | 35921 ft | 463 kts | 349° |
| 2026-05-07 12:48 | 42.70698 | -3.70475 | 35913 ft | 463 kts | 350° |
| 2026-05-07 12:48 | 42.77094 | -3.71569 | 35910 ft | 463 kts | 351° |
| 2026-05-07 12:49 | 42.83496 | -3.72628 | 35906 ft | 463 kts | 351° |
| 2026-05-07 12:49 | 42.89887 | -3.73703 | 35900 ft | 463 kts | 351° |
| 2026-05-07 12:50 | 42.96276 | -3.74795 | 35906 ft | 462 kts | 350° |
| 2026-05-07 12:50 | 43.02624 | -3.75887 | 35900 ft | 462 kts | 350° |
| 2026-05-07 12:51 | 43.09008 | -3.76988 | 35900 ft | 462 kts | 350° |
| 2026-05-07 12:51 | 43.15392 | -3.78090 | 35901 ft | 462 kts | 350° |
| 2026-05-07 12:52 | 43.21769 | -3.79193 | 35891 ft | 462 kts | 350° |
| 2026-05-07 12:52 | 43.28153 | -3.80300 | 35890 ft | 462 kts | 350° |
| 2026-05-07 12:53 | 43.34536 | -3.81409 | 35883 ft | 462 kts | 350° |
| 2026-05-07 12:53 | 43.40908 | -3.82518 | 35889 ft | 462 kts | 350° |
| 2026-05-07 12:54 | 43.47286 | -3.83630 | 35889 ft | 462 kts | 350° |
| 2026-05-07 12:54 | 43.53674 | -3.84747 | 35886 ft | 462 kts | 350° |
| 2026-05-07 12:55 | 43.59863 | -3.85831 | 35897 ft | 462 kts | 350° |
| 2026-05-07 12:55 | 43.66288 | -3.86959 | 35901 ft | 462 kts | 350° |
| 2026-05-07 12:56 | 43.72620 | -3.88073 | 35912 ft | 462 kts | 350° |
| 2026-05-07 12:56 | 43.78994 | -3.89197 | 35923 ft | 461 kts | 350° |
| 2026-05-07 12:57 | 43.85360 | -3.90322 | 35924 ft | 461 kts | 350° |
| 2026-05-07 12:57 | 43.91727 | -3.91449 | 35930 ft | 461 kts | 350° |
| 2026-05-07 12:58 | 43.98094 | -3.92579 | 35933 ft | 461 kts | 350° |
| 2026-05-07 12:58 | 44.04453 | -3.93710 | 35935 ft | 460 kts | 350° |
| 2026-05-07 12:59 | 44.10814 | -3.94844 | 35940 ft | 460 kts | 350° |
| 2026-05-07 12:59 | 44.17157 | -3.95977 | 35948 ft | 460 kts | 350° |
| 2026-05-07 13:00 | 44.23470 | -3.97107 | 35949 ft | 460 kts | 350° |
| 2026-05-07 13:00 | 44.29858 | -3.98254 | 35961 ft | 467 kts | 350° |
| 2026-05-07 13:01 | 44.36417 | -3.98848 | 35965 ft | 477 kts | 359° |
| 2026-05-07 13:01 | 44.43092 | -3.98562 | 35956 ft | 481 kts | 0° |
| 2026-05-07 13:02 | 44.49791 | -3.98210 | 35957 ft | 483 kts | 0° |
| 2026-05-07 13:02 | 44.56507 | -3.97909 | 35963 ft | 482 kts | 360° |
| 2026-05-07 13:03 | 44.63208 | -3.97646 | 35963 ft | 481 kts | 360° |
| 2026-05-07 13:03 | 44.69893 | -3.97395 | 35962 ft | 479 kts | 360° |
| 2026-05-07 13:04 | 44.76539 | -3.97144 | 35963 ft | 477 kts | 360° |
| 2026-05-07 13:04 | 44.83158 | -3.96892 | 35968 ft | 475 kts | 360° |
| 2026-05-07 13:05 | 44.89752 | -3.96640 | 35970 ft | 473 kts | 360° |
| 2026-05-07 13:05 | 44.96326 | -3.96387 | 35972 ft | 471 kts | 360° |
| 2026-05-07 13:06 | 45.02878 | -3.96135 | 35980 ft | 470 kts | 360° |
| 2026-05-07 13:06 | 45.09412 | -3.95883 | 35975 ft | 470 kts | 360° |
| 2026-05-07 13:07 | 45.15950 | -3.95630 | 35978 ft | 470 kts | 360° |
| 2026-05-07 13:07 | 45.22452 | -3.95378 | 35984 ft | 470 kts | 360° |
| 2026-05-07 13:08 | 45.29000 | -3.95124 | 35984 ft | 471 kts | 360° |
| 2026-05-07 13:08 | 45.35558 | -3.94868 | 35983 ft | 472 kts | 360° |
| 2026-05-07 13:09 | 45.42138 | -3.94612 | 35988 ft | 472 kts | 360° |
| 2026-05-07 13:09 | 45.48708 | -3.94354 | 35987 ft | 472 kts | 0° |
| 2026-05-07 13:10 | 45.55283 | -3.94096 | 35989 ft | 473 kts | 0° |
| 2026-05-07 13:10 | 45.61863 | -3.93838 | 35991 ft | 473 kts | 0° |
| 2026-05-07 13:11 | 45.68401 | -3.93580 | 35993 ft | 473 kts | 0° |
| 2026-05-07 13:11 | 45.74982 | -3.93320 | 35992 ft | 473 kts | 0° |
| 2026-05-07 13:12 | 45.81555 | -3.93060 | 35996 ft | 473 kts | 0° |
| 2026-05-07 13:12 | 45.88127 | -3.92799 | 35995 ft | 472 kts | 0° |
| 2026-05-07 13:13 | 45.94694 | -3.92538 | 35995 ft | 472 kts | 0° |
| 2026-05-07 13:13 | 46.00150 | -3.92320 | 36001 ft | 471 kts | 0° |
| 2026-05-07 13:14 | 46.06697 | -3.92058 | 36000 ft | 471 kts | 0° |
| 2026-05-07 13:14 | 46.13245 | -3.91796 | 36001 ft | 470 kts | 0° |
| 2026-05-07 13:15 | 46.19783 | -3.91534 | 36001 ft | 470 kts | 0° |
| 2026-05-07 13:15 | 46.26316 | -3.91271 | 36006 ft | 469 kts | 0° |
| 2026-05-07 13:16 | 46.32850 | -3.91007 | 36009 ft | 469 kts | 0° |
| 2026-05-07 13:16 | 46.39380 | -3.90743 | 36006 ft | 469 kts | 0° |
| 2026-05-07 13:17 | 46.45903 | -3.90479 | 36011 ft | 469 kts | 0° |
| 2026-05-07 13:17 | 46.52431 | -3.90213 | 36008 ft | 469 kts | 0° |
| 2026-05-07 13:18 | 46.58957 | -3.89948 | 36007 ft | 469 kts | 0° |
| 2026-05-07 13:18 | 46.65440 | -3.89683 | 36008 ft | 469 kts | 0° |
| 2026-05-07 13:19 | 46.71966 | -3.89416 | 36007 ft | 469 kts | 0° |
| 2026-05-07 13:19 | 46.78502 | -3.89148 | 36011 ft | 469 kts | 0° |
| 2026-05-07 13:20 | 46.85037 | -3.88879 | 36014 ft | 470 kts | 0° |
| 2026-05-07 13:20 | 46.91583 | -3.88609 | 36006 ft | 470 kts | 0° |
| 2026-05-07 13:21 | 46.98119 | -3.88339 | 36014 ft | 470 kts | 0° |
| 2026-05-07 13:21 | 47.04654 | -3.88068 | 36013 ft | 470 kts | 0° |
| 2026-05-07 13:22 | 47.11165 | -3.87798 | 36009 ft | 470 kts | 0° |
| 2026-05-07 13:22 | 47.17708 | -3.87526 | 36014 ft | 470 kts | 0° |
| 2026-05-07 13:23 | 47.24254 | -3.87252 | 36003 ft | 470 kts | 0° |
| 2026-05-07 13:23 | 47.30802 | -3.86978 | 36010 ft | 470 kts | 0° |
| 2026-05-07 13:24 | 47.37347 | -3.86704 | 36009 ft | 470 kts | 0° |
| 2026-05-07 13:24 | 47.43892 | -3.86429 | 36008 ft | 470 kts | 0° |
| 2026-05-07 13:25 | 47.50437 | -3.86153 | 36008 ft | 470 kts | 0° |
| 2026-05-07 13:25 | 47.56973 | -3.85877 | 36008 ft | 470 kts | 0° |
| 2026-05-07 13:26 | 47.63509 | -3.85600 | 36006 ft | 470 kts | 0° |
| 2026-05-07 13:26 | 47.69960 | -3.85325 | 36006 ft | 465 kts | 0° |
| 2026-05-07 13:27 | 47.76464 | -3.85049 | 36020 ft | 470 kts | 0° |
| 2026-05-07 13:27 | 47.83024 | -3.84770 | 36004 ft | 473 kts | 0° |
| 2026-05-07 13:28 | 47.89626 | -3.84488 | 35998 ft | 475 kts | 0° |
| 2026-05-07 13:28 | 47.96248 | -3.84203 | 35992 ft | 476 kts | 0° |
| 2026-05-07 13:29 | 48.02829 | -3.83919 | 35983 ft | 469 kts | 0° |
| 2026-05-07 13:29 | 48.09336 | -3.83638 | 35989 ft | 467 kts | 0° |
| 2026-05-07 13:30 | 48.15822 | -3.83358 | 35987 ft | 466 kts | 0° |
| 2026-05-07 13:30 | 48.22302 | -3.83078 | 35985 ft | 465 kts | 0° |
| 2026-05-07 13:31 | 48.28729 | -3.82799 | 35983 ft | 465 kts | 0° |
| 2026-05-07 13:31 | 48.35213 | -3.82517 | 35991 ft | 466 kts | 0° |
| 2026-05-07 13:32 | 48.41706 | -3.82233 | 35998 ft | 468 kts | 0° |
| 2026-05-07 13:32 | 48.48225 | -3.81948 | 35998 ft | 470 kts | 0° |
| 2026-05-07 13:33 | 48.54779 | -3.81660 | 35988 ft | 471 kts | 0° |
| 2026-05-07 13:33 | 48.61340 | -3.81372 | 35998 ft | 472 kts | 0° |
| 2026-05-07 13:34 | 48.71188 | -3.80936 | 35994 ft | 472 kts | 0° |
| 2026-05-07 13:35 | 48.77754 | -3.80646 | 35994 ft | 471 kts | 0° |
| 2026-05-07 13:35 | 48.84312 | -3.80354 | 35997 ft | 471 kts | 0° |
| 2026-05-07 13:36 | 48.90859 | -3.80063 | 35984 ft | 471 kts | 0° |
| 2026-05-07 13:36 | 48.97402 | -3.79771 | 35993 ft | 470 kts | 0° |
| 2026-05-07 13:37 | 49.03918 | -3.79479 | 35988 ft | 466 kts | 0° |
| 2026-05-07 13:37 | 49.10368 | -3.79188 | 35995 ft | 461 kts | 0° |
| 2026-05-07 13:38 | 49.16769 | -3.78901 | 36005 ft | 459 kts | 0° |
| 2026-05-07 13:38 | 49.23115 | -3.78615 | 36009 ft | 458 kts | 0° |
| 2026-05-07 13:39 | 49.29480 | -3.78327 | 36013 ft | 458 kts | 0° |
| 2026-05-07 13:39 | 49.35894 | -3.78038 | 35614 ft | 467 kts | 0° |
| 2026-05-07 13:39 | 49.39147 | -3.77890 | 35247 ft | 468 kts | 0° |
| 2026-05-07 13:40 | 49.42391 | -3.77742 | 34829 ft | 464 kts | 0° |
| 2026-05-07 13:40 | 49.45608 | -3.77595 | 34431 ft | 462 kts | 0° |
| 2026-05-07 13:40 | 49.48825 | -3.77448 | 34025 ft | 462 kts | 0° |
| 2026-05-07 13:40 | 49.52034 | -3.77301 | 33546 ft | 462 kts | 0° |
| 2026-05-07 13:41 | 49.55248 | -3.77154 | 33098 ft | 460 kts | 0° |
| 2026-05-07 13:41 | 49.58453 | -3.77007 | 32665 ft | 458 kts | 0° |
| 2026-05-07 13:41 | 49.61585 | -3.76863 | 32262 ft | 454 kts | 0° |
| 2026-05-07 13:41 | 49.64734 | -3.76719 | 31850 ft | 451 kts | 0° |
| 2026-05-07 13:42 | 49.67865 | -3.76575 | 31441 ft | 448 kts | 0° |
| 2026-05-07 13:42 | 49.70964 | -3.76412 | 31048 ft | 444 kts | 1° |
| 2026-05-07 13:42 | 49.74033 | -3.76112 | 30660 ft | 441 kts | 3° |
| 2026-05-07 13:42 | 49.77084 | -3.75732 | 30278 ft | 438 kts | 4° |
| 2026-05-07 13:43 | 49.80107 | -3.75331 | 29856 ft | 434 kts | 4° |
| 2026-05-07 13:43 | 49.83107 | -3.74936 | 29418 ft | 431 kts | 4° |
| 2026-05-07 13:43 | 49.86083 | -3.74556 | 29017 ft | 427 kts | 3° |
| 2026-05-07 13:43 | 49.89032 | -3.74191 | 28615 ft | 424 kts | 3° |
| 2026-05-07 13:44 | 49.91968 | -3.73835 | 28202 ft | 421 kts | 3° |
| 2026-05-07 13:44 | 49.94879 | -3.73487 | 27811 ft | 418 kts | 3° |
| 2026-05-07 13:44 | 49.97777 | -3.73141 | 27402 ft | 416 kts | 3° |
| 2026-05-07 13:44 | 50.00656 | -3.72798 | 27005 ft | 414 kts | 3° |
| 2026-05-07 13:45 | 50.03523 | -3.72456 | 26611 ft | 412 kts | 3° |
| 2026-05-07 13:45 | 50.06376 | -3.72115 | 26221 ft | 410 kts | 3° |
| 2026-05-07 13:45 | 50.09218 | -3.71775 | 25832 ft | 409 kts | 3° |
| 2026-05-07 13:45 | 50.12045 | -3.71436 | 25451 ft | 407 kts | 3° |
| 2026-05-07 13:46 | 50.14860 | -3.71097 | 25065 ft | 405 kts | 3° |
| 2026-05-07 13:46 | 50.17665 | -3.70760 | 24682 ft | 403 kts | 3° |
| 2026-05-07 13:46 | 50.20464 | -3.70423 | 24315 ft | 409 kts | 3° |
| 2026-05-07 13:46 | 50.23380 | -3.70073 | 23917 ft | 433 kts | 4° |
| 2026-05-07 13:47 | 50.26469 | -3.69702 | 23455 ft | 455 kts | 4° |
| 2026-05-07 13:47 | 50.29633 | -3.69319 | 22942 ft | 458 kts | 4° |
| 2026-05-07 13:47 | 50.32796 | -3.68934 | 22485 ft | 464 kts | 4° |
| 2026-05-07 13:47 | 50.36075 | -3.68534 | 22013 ft | 466 kts | 4° |
| 2026-05-07 13:48 | 50.39273 | -3.68146 | 21573 ft | 454 kts | 3° |
| 2026-05-07 13:48 | 50.42387 | -3.67756 | 21144 ft | 443 kts | 4° |
| 2026-05-07 13:48 | 50.45416 | -3.67223 | 20767 ft | 433 kts | 6° |
| 2026-05-07 13:48 | 50.48374 | -3.66630 | 20343 ft | 425 kts | 6° |
| 2026-05-07 13:49 | 50.51235 | -3.66051 | 19947 ft | 417 kts | 6° |
| 2026-05-07 13:49 | 50.54130 | -3.65484 | 19531 ft | 410 kts | 6° |
| 2026-05-07 13:49 | 50.56902 | -3.64951 | 19150 ft | 404 kts | 6° |
| 2026-05-07 13:49 | 50.59672 | -3.64422 | 18754 ft | 398 kts | 6° |
| 2026-05-07 13:50 | 50.62400 | -3.63902 | 18383 ft | 393 kts | 6° |
| 2026-05-07 13:50 | 50.65094 | -3.63385 | 17952 ft | 388 kts | 6° |
| 2026-05-07 13:50 | 50.67763 | -3.62875 | 17538 ft | 383 kts | 6° |
| 2026-05-07 13:50 | 50.70387 | -3.62372 | 17147 ft | 378 kts | 6° |
| 2026-05-07 13:51 | 50.72988 | -3.61873 | 16770 ft | 373 kts | 6° |
| 2026-05-07 13:51 | 50.75548 | -3.61380 | 16397 ft | 369 kts | 6° |
| 2026-05-07 13:51 | 50.78077 | -3.60893 | 16041 ft | 365 kts | 6° |
| 2026-05-07 13:51 | 50.80582 | -3.60410 | 15672 ft | 361 kts | 6° |
| 2026-05-07 13:52 | 50.83062 | -3.59930 | 15310 ft | 357 kts | 6° |
| 2026-05-07 13:52 | 50.85520 | -3.59457 | 14964 ft | 354 kts | 6° |
| 2026-05-07 13:52 | 50.87962 | -3.58984 | 14609 ft | 352 kts | 6° |
| 2026-05-07 13:52 | 50.90388 | -3.58513 | 14259 ft | 350 kts | 6° |
| 2026-05-07 13:53 | 50.92780 | -3.57864 | 13891 ft | 350 kts | 19° |
| 2026-05-07 13:53 | 50.94906 | -3.56045 | 13501 ft | 347 kts | 40° |
| 2026-05-07 13:53 | 50.96620 | -3.53383 | 13139 ft | 343 kts | 47° |
| 2026-05-07 13:53 | 50.98223 | -3.50651 | 12779 ft | 341 kts | 49° |
| 2026-05-07 13:54 | 50.99827 | -3.47909 | 12420 ft | 335 kts | 48° |
| 2026-05-07 13:54 | 51.01406 | -3.45253 | 12067 ft | 326 kts | 47° |
| 2026-05-07 13:54 | 51.02951 | -3.42679 | 11742 ft | 318 kts | 48° |
| 2026-05-07 13:54 | 51.04466 | -3.40169 | 11432 ft | 311 kts | 45° |
| 2026-05-07 13:55 | 51.06240 | -3.38277 | 11089 ft | 307 kts | 21° |
| 2026-05-07 13:55 | 51.08286 | -3.37520 | 10814 ft | 299 kts | 6° |
| 2026-05-07 13:55 | 51.10350 | -3.37192 | 10507 ft | 296 kts | 5° |
| 2026-05-07 13:55 | 51.12395 | -3.36886 | 10203 ft | 294 kts | 5° |
| 2026-05-07 13:56 | 51.14417 | -3.36561 | 10050 ft | 291 kts | 5° |
| 2026-05-07 13:56 | 51.16446 | -3.36294 | 9799 ft | 295 kts | 4° |
| 2026-05-07 13:56 | 51.18512 | -3.36075 | 9482 ft | 300 kts | 3° |
| 2026-05-07 13:56 | 51.20596 | -3.35860 | 9161 ft | 300 kts | 3° |
| 2026-05-07 13:57 | 51.22675 | -3.35642 | 8845 ft | 298 kts | 3° |
| 2026-05-07 13:57 | 51.24732 | -3.35420 | 8540 ft | 296 kts | 4° |
| 2026-05-07 13:57 | 51.26782 | -3.35196 | 8252 ft | 294 kts | 4° |
| 2026-05-07 13:57 | 51.28792 | -3.34973 | 7960 ft | 292 kts | 4° |
| 2026-05-07 13:58 | 51.30814 | -3.34748 | 7672 ft | 291 kts | 4° |
| 2026-05-07 13:58 | 51.32825 | -3.34523 | 7380 ft | 287 kts | 4° |
| 2026-05-07 13:58 | 51.34774 | -3.34304 | 7243 ft | 274 kts | 4° |
| 2026-05-07 13:58 | 51.36636 | -3.34095 | 7131 ft | 264 kts | 4° |
| 2026-05-07 13:59 | 51.38470 | -3.33889 | 7030 ft | 264 kts | 4° |
| 2026-05-07 13:59 | 51.40294 | -3.33733 | 6991 ft | 260 kts | 1° |
| 2026-05-07 13:59 | 51.41492 | -3.33702 | 6874 ft | 260 kts | 0° |
| 2026-05-07 13:59 | 51.43295 | -3.33676 | 6653 ft | 258 kts | 360° |
| 2026-05-07 14:00 | 51.45053 | -3.33990 | 6401 ft | 254 kts | 339° |
| 2026-05-07 14:00 | 51.46635 | -3.35183 | 6184 ft | 250 kts | 330° |
| 2026-05-07 14:00 | 51.47980 | -3.36869 | 5902 ft | 245 kts | 306° |
| 2026-05-07 14:00 | 51.48882 | -3.39102 | 5618 ft | 233 kts | 296° |
| 2026-05-07 14:01 | 51.49633 | -3.41335 | 5347 ft | 225 kts | 295° |
| 2026-05-07 14:01 | 51.50348 | -3.43478 | 5077 ft | 218 kts | 295° |
| 2026-05-07 14:01 | 51.51070 | -3.45632 | 4819 ft | 212 kts | 295° |
| 2026-05-07 14:01 | 51.51761 | -3.47691 | 4566 ft | 206 kts | 295° |
| 2026-05-07 14:02 | 51.52427 | -3.49670 | 4368 ft | 197 kts | 294° |
| 2026-05-07 14:02 | 51.52995 | -3.51642 | 4152 ft | 192 kts | 286° |
| 2026-05-07 14:02 | 51.53063 | -3.53683 | 3910 ft | 179 kts | 247° |
| 2026-05-07 14:02 | 51.52342 | -3.55143 | 3713 ft | 161 kts | 209° |
| 2026-05-07 14:03 | 51.51366 | -3.55943 | 3560 ft | 156 kts | 205° |
| 2026-05-07 14:03 | 51.50393 | -3.56590 | 3325 ft | 147 kts | 194° |
| 2026-05-07 14:03 | 51.49418 | -3.56645 | 3141 ft | 140 kts | 167° |
| 2026-05-07 14:03 | 51.48500 | -3.56162 | 2942 ft | 138 kts | 165° |
| 2026-05-07 14:04 | 51.47595 | -3.55620 | 2749 ft | 140 kts | 159° |
| 2026-05-07 14:04 | 51.46717 | -3.54935 | 2569 ft | 142 kts | 153° |
| 2026-05-07 14:04 | 51.46072 | -3.53752 | 2491 ft | 148 kts | 124° |
| 2026-05-07 14:04 | 51.45526 | -3.52350 | 2477 ft | 148 kts | 128° |
| 2026-05-07 14:05 | 51.44965 | -3.50980 | 2387 ft | 146 kts | 125° |
| 2026-05-07 14:05 | 51.44474 | -3.49550 | 2182 ft | 146 kts | 122° |
| 2026-05-07 14:05 | 51.44012 | -3.48119 | 2015 ft | 145 kts | 121° |
| 2026-05-07 14:05 | 51.43552 | -3.46670 | 1791 ft | 144 kts | 121° |
| 2026-05-07 14:06 | 51.43102 | -3.45242 | 1622 ft | 145 kts | 121° |
| 2026-05-07 14:06 | 51.42642 | -3.43786 | 1418 ft | 147 kts | 121° |
| 2026-05-07 14:06 | 51.42186 | -3.42340 | 1192 ft | 143 kts | 121° |
| 2026-05-07 14:06 | 51.41745 | -3.40941 | 972 ft | 137 kts | 120° |
| 2026-05-07 14:07 | 51.41322 | -3.39584 | 794 ft | 134 kts | 120° |
| 2026-05-07 14:07 | 51.40896 | -3.38290 | 601 ft | 130 kts | 120° |
| 2026-05-07 14:07 | 51.40490 | -3.36958 | 407 ft | 137 kts | 119° |
| 2026-05-07 14:07 | 51.40058 | -3.35573 | 246 ft | 140 kts | 118° |
| 2026-05-07 14:08 | 51.39635 | -3.34250 | 218 ft | 119 kts | 117° |
| 2026-05-07 14:08 | 51.39347 | -3.33339 | 223 ft | 38 kts | 117° |
| 2026-05-07 14:08 | 51.39317 | -3.33104 | 222 ft | 14 kts | 39° |
| 2026-05-07 14:08 | 51.39388 | -3.33041 | 220 ft | 11 kts | 25° |
| 2026-05-07 14:09 | 51.39440 | -3.33068 | 220 ft | 8 kts | 316° |
| 2026-05-07 14:09 | 51.39472 | -3.33143 | 220 ft | 8 kts | 297° |
| 2026-05-07 14:09 | 51.39497 | -3.33220 | 220 ft | 8 kts | 297° |
| 2026-05-07 14:09 | 51.39521 | -3.33299 | 221 ft | 8 kts | 297° |
| 2026-05-07 14:10 | 51.39549 | -3.33386 | 218 ft | 9 kts | 296° |
| 2026-05-07 14:10 | 51.39576 | -3.33474 | 220 ft | 9 kts | 296° |
| 2026-05-07 14:10 | 51.39602 | -3.33559 | 219 ft | 8 kts | 296° |
| 2026-05-07 14:10 | 51.39630 | -3.33646 | 219 ft | 9 kts | 296° |
| 2026-05-07 14:11 | 51.39659 | -3.33740 | 220 ft | 9 kts | 297° |
| 2026-05-07 14:11 | 51.39690 | -3.33829 | 220 ft | 8 kts | 311° |
| 2026-05-07 14:11 | 51.39738 | -3.33819 | 219 ft | 7 kts | 25° |
| 2026-05-07 14:11 | 51.39742 | -3.33816 | 219 ft | 0 kts | 25° |